Terminal Aerodrome Forecast
Issued by NWS

Home | Current Version | Previous Version | Text Only | Print | Product List | Glossary On
Versions: 1 2 3 4 5 6 7 8 9 10 11 12 13 14 15 16 17 18 19
000
FTUS41 KBGM 312323
TAFITH
TAF
KITH 312323Z 0100/0124 22005KT P6SM BKN035
      TEMPO 0101/0103 -SHRA
     FM010400 VRB03KT P6SM BKN120
     FM010800 33004KT 5SM BR BKN015
     FM011400 33008KT P6SM BKN035
     FM011800 34010KT P6SM SCT040=

USA.gov is the U.S. government's official web portal to all federal, state and local government web resources and services.